sensor_id;sensor_type;location;lat;lon;timestamp;P1;durP1;ratioP1;P2;durP2;ratioP2
31442;SDS011;18065;55.876;9.830;2022-10-17T00:01:35;0.90;;;0.60;;
31442;SDS011;18065;55.876;9.830;2022-10-17T00:04:04;0.95;;;0.60;;
31442;SDS011;18065;55.876;9.830;2022-10-17T00:06:32;1.27;;;0.50;;
31442;SDS011;18065;55.876;9.830;2022-10-17T00:09:02;1.20;;;0.50;;
31442;SDS011;18065;55.876;9.830;2022-10-17T00:11:34;0.60;;;0.43;;
31442;SDS011;18065;55.876;9.830;2022-10-17T00:14:03;1.65;;;0.63;;
31442;SDS011;18065;55.876;9.830;2022-10-17T00:16:33;0.85;;;0.50;;
31442;SDS011;18065;55.876;9.830;2022-10-17T00:19:02;1.08;;;0.63;;
31442;SDS011;18065;55.876;9.830;2022-10-17T00:21:32;0.68;;;0.60;;
31442;SDS011;18065;55.876;9.830;2022-10-17T00:24:01;0.93;;;0.50;;
31442;SDS011;18065;55.876;9.830;2022-10-17T00:26:29;1.10;;;0.73;;
31442;SDS011;18065;55.876;9.830;2022-10-17T00:29:01;0.80;;;0.40;;
31442;SDS011;18065;55.876;9.830;2022-10-17T00:31:29;1.08;;;0.40;;
31442;SDS011;18065;55.876;9.830;2022-10-17T00:33:59;1.90;;;0.50;;
31442;SDS011;18065;55.876;9.830;2022-10-17T00:36:28;0.80;;;0.50;;
31442;SDS011;18065;55.876;9.830;2022-10-17T00:38:59;0.70;;;0.50;;
31442;SDS011;18065;55.876;9.830;2022-10-17T00:41:28;0.90;;;0.40;;
31442;SDS011;18065;55.876;9.830;2022-10-17T00:44:01;0.57;;;0.38;;
31442;SDS011;18065;55.876;9.830;2022-10-17T00:46:32;0.77;;;0.40;;
31442;SDS011;18065;55.876;9.830;2022-10-17T00:49:03;1.15;;;0.60;;
31442;SDS011;18065;55.876;9.830;2022-10-17T00:51:36;0.90;;;0.50;;
31442;SDS011;18065;55.876;9.830;2022-10-17T00:54:08;0.50;;;0.50;;
31442;SDS011;18065;55.876;9.830;2022-10-17T00:56:38;0.95;;;0.68;;
31442;SDS011;18065;55.876;9.830;2022-10-17T00:59:10;1.05;;;0.60;;
31442;SDS011;18065;55.876;9.830;2022-10-17T01:01:40;1.40;;;0.60;;
31442;SDS011;18065;55.876;9.830;2022-10-17T01:04:11;0.73;;;0.57;;
31442;SDS011;18065;55.876;9.830;2022-10-17T01:06:40;0.90;;;0.57;;
31442;SDS011;18065;55.876;9.830;2022-10-17T01:09:09;1.13;;;0.50;;
31442;SDS011;18065;55.876;9.830;2022-10-17T01:11:38;0.85;;;0.50;;
31442;SDS011;18065;55.876;9.830;2022-10-17T01:14:21;1.33;;;0.50;;
31442;SDS011;18065;55.876;9.830;2022-10-17T01:16:58;0.75;;;0.50;;
31442;SDS011;18065;55.876;9.830;2022-10-17T01:19:37;0.85;;;0.50;;
31442;SDS011;18065;55.876;9.830;2022-10-17T01:22:24;0.95;;;0.60;;
31442;SDS011;18065;55.876;9.830;2022-10-17T01:25:06;0.95;;;0.50;;
31442;SDS011;18065;55.876;9.830;2022-10-17T01:27:56;1.17;;;0.50;;
31442;SDS011;18065;55.876;9.830;2022-10-17T01:36:34;1.40;;;0.43;;
31442;SDS011;18065;55.876;9.830;2022-10-17T01:39:09;0.93;;;0.47;;
31442;SDS011;18065;55.876;9.830;2022-10-17T01:41:43;1.65;;;0.73;;
31442;SDS011;18065;55.876;9.830;2022-10-17T01:44:17;0.80;;;0.50;;
31442;SDS011;18065;55.876;9.830;2022-10-17T01:46:53;1.15;;;0.57;;
31442;SDS011;18065;55.876;9.830;2022-10-17T01:49:28;1.23;;;0.55;;
31442;SDS011;18065;55.876;9.830;2022-10-17T01:51:59;0.88;;;0.60;;
31442;SDS011;18065;55.876;9.830;2022-10-17T01:54:34;0.77;;;0.47;;
31442;SDS011;18065;55.876;9.830;2022-10-17T01:57:08;1.27;;;0.52;;
31442;SDS011;18065;55.876;9.830;2022-10-17T01:59:40;1.13;;;0.45;;
31442;SDS011;18065;55.876;9.830;2022-10-17T02:02:15;1.33;;;0.50;;
31442;SDS011;18065;55.876;9.830;2022-10-17T02:04:46;0.40;;;0.35;;
31442;SDS011;18065;55.876;9.830;2022-10-17T02:07:18;0.68;;;0.40;;
31442;SDS011;18065;55.876;9.830;2022-10-17T02:09:46;1.45;;;0.60;;
31442;SDS011;18065;55.876;9.830;2022-10-17T02:12:19;0.73;;;0.50;;
31442;SDS011;18065;55.876;9.830;2022-10-17T02:14:59;0.45;;;0.40;;
31442;SDS011;18065;55.876;9.830;2022-10-17T02:17:43;0.85;;;0.40;;
31442;SDS011;18065;55.876;9.830;2022-10-17T02:20:16;0.75;;;0.30;;
31442;SDS011;18065;55.876;9.830;2022-10-17T02:22:51;0.73;;;0.40;;
31442;SDS011;18065;55.876;9.830;2022-10-17T02:25:30;0.70;;;0.47;;
31442;SDS011;18065;55.876;9.830;2022-10-17T02:28:08;0.60;;;0.50;;
31442;SDS011;18065;55.876;9.830;2022-10-17T02:30:48;0.73;;;0.57;;
31442;SDS011;18065;55.876;9.830;2022-10-17T02:33:24;0.70;;;0.40;;
31442;SDS011;18065;55.876;9.830;2022-10-17T02:35:56;0.93;;;0.47;;
31442;SDS011;18065;55.876;9.830;2022-10-17T02:38:27;0.93;;;0.55;;
31442;SDS011;18065;55.876;9.830;2022-10-17T02:40:57;0.70;;;0.40;;
31442;SDS011;18065;55.876;9.830;2022-10-17T02:43:26;0.95;;;0.60;;
31442;SDS011;18065;55.876;9.830;2022-10-17T02:45:55;0.77;;;0.50;;
31442;SDS011;18065;55.876;9.830;2022-10-17T02:48:29;0.52;;;0.50;;
31442;SDS011;18065;55.876;9.830;2022-10-17T02:51:06;0.75;;;0.50;;
31442;SDS011;18065;55.876;9.830;2022-10-17T02:53:43;0.77;;;0.50;;
31442;SDS011;18065;55.876;9.830;2022-10-17T02:56:21;0.82;;;0.38;;
31442;SDS011;18065;55.876;9.830;2022-10-17T02:58:53;1.38;;;0.57;;
31442;SDS011;18065;55.876;9.830;2022-10-17T03:01:24;1.20;;;0.60;;
31442;SDS011;18065;55.876;9.830;2022-10-17T03:04:05;1.52;;;0.55;;
31442;SDS011;18065;55.876;9.830;2022-10-17T03:06:35;0.57;;;0.43;;
31442;SDS011;18065;55.876;9.830;2022-10-17T03:09:03;1.15;;;0.50;;
31442;SDS011;18065;55.876;9.830;2022-10-17T03:11:33;1.10;;;0.60;;
31442;SDS011;18065;55.876;9.830;2022-10-17T03:14:02;1.73;;;0.43;;
31442;SDS011;18065;55.876;9.830;2022-10-17T03:16:31;0.52;;;0.45;;
31442;SDS011;18065;55.876;9.830;2022-10-17T03:18:59;0.63;;;0.50;;
31442;SDS011;18065;55.876;9.830;2022-10-17T03:21:31;0.35;;;0.35;;
31442;SDS011;18065;55.876;9.830;2022-10-17T03:24:00;1.20;;;0.60;;
31442;SDS011;18065;55.876;9.830;2022-10-17T03:26:29;1.58;;;0.50;;
31442;SDS011;18065;55.876;9.830;2022-10-17T03:28:58;0.65;;;0.40;;
31442;SDS011;18065;55.876;9.830;2022-10-17T03:31:26;1.40;;;0.50;;
31442;SDS011;18065;55.876;9.830;2022-10-17T03:33:55;0.43;;;0.40;;
31442;SDS011;18065;55.876;9.830;2022-10-17T03:36:24;0.40;;;0.30;;
31442;SDS011;18065;55.876;9.830;2022-10-17T03:38:55;1.95;;;0.60;;
31442;SDS011;18065;55.876;9.830;2022-10-17T03:41:24;0.80;;;0.60;;
31442;SDS011;18065;55.876;9.830;2022-10-17T03:43:52;0.38;;;0.38;;
31442;SDS011;18065;55.876;9.830;2022-10-17T03:46:21;1.00;;;0.50;;
31442;SDS011;18065;55.876;9.830;2022-10-17T03:48:50;1.10;;;0.35;;
31442;SDS011;18065;55.876;9.830;2022-10-17T03:51:18;0.63;;;0.45;;
31442;SDS011;18065;55.876;9.830;2022-10-17T03:53:47;0.55;;;0.40;;
31442;SDS011;18065;55.876;9.830;2022-10-17T03:56:20;0.63;;;0.40;;
31442;SDS011;18065;55.876;9.830;2022-10-17T03:58:49;0.88;;;0.50;;
31442;SDS011;18065;55.876;9.830;2022-10-17T04:01:18;0.80;;;0.32;;
31442;SDS011;18065;55.876;9.830;2022-10-17T04:03:47;1.50;;;0.60;;
31442;SDS011;18065;55.876;9.830;2022-10-17T04:06:17;0.40;;;0.40;;
31442;SDS011;18065;55.876;9.830;2022-10-17T04:08:47;0.77;;;0.32;;
31442;SDS011;18065;55.876;9.830;2022-10-17T04:11:17;1.20;;;0.57;;
31442;SDS011;18065;55.876;9.830;2022-10-17T04:13:51;0.63;;;0.50;;
31442;SDS011;18065;55.876;9.830;2022-10-17T04:16:21;0.65;;;0.40;;
31442;SDS011;18065;55.876;9.830;2022-10-17T04:18:51;1.27;;;0.65;;
31442;SDS011;18065;55.876;9.830;2022-10-17T04:21:21;1.90;;;0.40;;
31442;SDS011;18065;55.876;9.830;2022-10-17T04:23:53;0.55;;;0.45;;
31442;SDS011;18065;55.876;9.830;2022-10-17T04:26:24;0.47;;;0.32;;
31442;SDS011;18065;55.876;9.830;2022-10-17T04:28:54;1.08;;;0.50;;
31442;SDS011;18065;55.876;9.830;2022-10-17T04:31:22;0.70;;;0.45;;
31442;SDS011;18065;55.876;9.830;2022-10-17T04:33:51;0.57;;;0.40;;
31442;SDS011;18065;55.876;9.830;2022-10-17T04:36:20;1.38;;;0.40;;
31442;SDS011;18065;55.876;9.830;2022-10-17T04:38:49;0.60;;;0.40;;
31442;SDS011;18065;55.876;9.830;2022-10-17T04:41:17;0.70;;;0.50;;
31442;SDS011;18065;55.876;9.830;2022-10-17T04:43:49;0.65;;;0.50;;
31442;SDS011;18065;55.876;9.830;2022-10-17T04:46:17;0.73;;;0.57;;
31442;SDS011;18065;55.876;9.830;2022-10-17T04:48:46;0.65;;;0.50;;
31442;SDS011;18065;55.876;9.830;2022-10-17T04:51:15;0.85;;;0.45;;
31442;SDS011;18065;55.876;9.830;2022-10-17T04:53:45;0.77;;;0.40;;
31442;SDS011;18065;55.876;9.830;2022-10-17T04:56:14;0.57;;;0.50;;
31442;SDS011;18065;55.876;9.830;2022-10-17T04:58:45;0.95;;;0.60;;
31442;SDS011;18065;55.876;9.830;2022-10-17T05:01:17;0.75;;;0.40;;
31442;SDS011;18065;55.876;9.830;2022-10-17T05:03:47;0.93;;;0.50;;
31442;SDS011;18065;55.876;9.830;2022-10-17T05:06:17;1.08;;;0.55;;
31442;SDS011;18065;55.876;9.830;2022-10-17T05:08:47;0.57;;;0.40;;
31442;SDS011;18065;55.876;9.830;2022-10-17T05:11:17;0.85;;;0.60;;
31442;SDS011;18065;55.876;9.830;2022-10-17T05:13:51;1.25;;;0.57;;
31442;SDS011;18065;55.876;9.830;2022-10-17T05:16:23;1.15;;;0.60;;
31442;SDS011;18065;55.876;9.830;2022-10-17T05:18:54;1.45;;;0.60;;
31442;SDS011;18065;55.876;9.830;2022-10-17T05:21:24;1.35;;;0.40;;
31442;SDS011;18065;55.876;9.830;2022-10-17T05:23:54;0.75;;;0.70;;
31442;SDS011;18065;55.876;9.830;2022-10-17T05:26:23;0.63;;;0.50;;
31442;SDS011;18065;55.876;9.830;2022-10-17T05:28:52;0.50;;;0.40;;
31442;SDS011;18065;55.876;9.830;2022-10-17T05:31:25;0.98;;;0.80;;
31442;SDS011;18065;55.876;9.830;2022-10-17T05:33:54;0.65;;;0.40;;
31442;SDS011;18065;55.876;9.830;2022-10-17T05:36:22;0.40;;;0.40;;
31442;SDS011;18065;55.876;9.830;2022-10-17T05:38:51;0.40;;;0.40;;
31442;SDS011;18065;55.876;9.830;2022-10-17T05:41:20;1.48;;;0.60;;
31442;SDS011;18065;55.876;9.830;2022-10-17T05:43:49;1.10;;;0.55;;
31442;SDS011;18065;55.876;9.830;2022-10-17T05:46:17;1.27;;;0.55;;
31442;SDS011;18065;55.876;9.830;2022-10-17T05:48:49;0.68;;;0.57;;
31442;SDS011;18065;55.876;9.830;2022-10-17T05:51:19;0.35;;;0.35;;
31442;SDS011;18065;55.876;9.830;2022-10-17T05:53:48;2.08;;;0.55;;
31442;SDS011;18065;55.876;9.830;2022-10-17T05:56:17;0.70;;;0.50;;
31442;SDS011;18065;55.876;9.830;2022-10-17T05:58:45;0.40;;;0.40;;
31442;SDS011;18065;55.876;9.830;2022-10-17T06:01:14;0.85;;;0.60;;
31442;SDS011;18065;55.876;9.830;2022-10-17T06:03:43;1.63;;;0.85;;
31442;SDS011;18065;55.876;9.830;2022-10-17T06:06:14;0.70;;;0.50;;
31442;SDS011;18065;55.876;9.830;2022-10-17T06:08:44;0.85;;;0.60;;
31442;SDS011;18065;55.876;9.830;2022-10-17T06:11:13;0.85;;;0.50;;
31442;SDS011;18065;55.876;9.830;2022-10-17T06:13:41;0.75;;;0.50;;
31442;SDS011;18065;55.876;9.830;2022-10-17T06:16:10;1.10;;;0.70;;
31442;SDS011;18065;55.876;9.830;2022-10-17T06:18:39;0.65;;;0.50;;
31442;SDS011;18065;55.876;9.830;2022-10-17T06:21:08;1.02;;;0.50;;
31442;SDS011;18065;55.876;9.830;2022-10-17T06:23:41;0.50;;;0.50;;
31442;SDS011;18065;55.876;9.830;2022-10-17T06:26:09;0.80;;;0.50;;
31442;SDS011;18065;55.876;9.830;2022-10-17T06:28:38;0.70;;;0.40;;
31442;SDS011;18065;55.876;9.830;2022-10-17T06:31:08;1.00;;;0.47;;
31442;SDS011;18065;55.876;9.830;2022-10-17T06:33:37;0.40;;;0.40;;
31442;SDS011;18065;55.876;9.830;2022-10-17T06:36:07;1.05;;;0.40;;
31442;SDS011;18065;55.876;9.830;2022-10-17T06:38:41;1.08;;;0.40;;
31442;SDS011;18065;55.876;9.830;2022-10-17T06:41:10;0.40;;;0.40;;
31442;SDS011;18065;55.876;9.830;2022-10-17T06:43:41;1.63;;;0.70;;
31442;SDS011;18065;55.876;9.830;2022-10-17T06:46:11;0.38;;;0.35;;
31442;SDS011;18065;55.876;9.830;2022-10-17T06:48:41;1.10;;;0.60;;
31442;SDS011;18065;55.876;9.830;2022-10-17T06:51:10;0.77;;;0.50;;
31442;SDS011;18065;55.876;9.830;2022-10-17T06:53:41;0.40;;;0.40;;
31442;SDS011;18065;55.876;9.830;2022-10-17T06:56:11;0.50;;;0.38;;
31442;SDS011;18065;55.876;9.830;2022-10-17T06:58:40;0.40;;;0.40;;
31442;SDS011;18065;55.876;9.830;2022-10-17T07:01:09;0.63;;;0.40;;
31442;SDS011;18065;55.876;9.830;2022-10-17T07:03:39;1.45;;;0.35;;
31442;SDS011;18065;55.876;9.830;2022-10-17T07:06:08;1.08;;;0.60;;
31442;SDS011;18065;55.876;9.830;2022-10-17T07:08:40;0.40;;;0.40;;
31442;SDS011;18065;55.876;9.830;2022-10-17T07:11:13;0.77;;;0.47;;
31442;SDS011;18065;55.876;9.830;2022-10-17T07:13:42;0.43;;;0.40;;
31442;SDS011;18065;55.876;9.830;2022-10-17T07:16:12;0.82;;;0.60;;
31442;SDS011;18065;55.876;9.830;2022-10-17T07:18:42;0.47;;;0.40;;
31442;SDS011;18065;55.876;9.830;2022-10-17T07:21:13;0.47;;;0.47;;
31442;SDS011;18065;55.876;9.830;2022-10-17T07:23:44;0.45;;;0.38;;
31442;SDS011;18065;55.876;9.830;2022-10-17T07:26:14;0.45;;;0.40;;
31442;SDS011;18065;55.876;9.830;2022-10-17T07:28:44;0.60;;;0.38;;
31442;SDS011;18065;55.876;9.830;2022-10-17T07:31:15;16.50;;;2.35;;
31442;SDS011;18065;55.876;9.830;2022-10-17T07:33:45;5.40;;;1.08;;
31442;SDS011;18065;55.876;9.830;2022-10-17T07:36:14;4.72;;;1.00;;
31442;SDS011;18065;55.876;9.830;2022-10-17T07:38:45;5.43;;;1.13;;
31442;SDS011;18065;55.876;9.830;2022-10-17T07:41:14;5.05;;;1.20;;
31442;SDS011;18065;55.876;9.830;2022-10-17T07:43:43;6.10;;;1.13;;
31442;SDS011;18065;55.876;9.830;2022-10-17T07:46:12;8.88;;;1.45;;
31442;SDS011;18065;55.876;9.830;2022-10-17T07:48:41;9.77;;;1.48;;
31442;SDS011;18065;55.876;9.830;2022-10-17T07:51:09;10.13;;;1.58;;
31442;SDS011;18065;55.876;9.830;2022-10-17T07:53:38;6.25;;;1.65;;
31442;SDS011;18065;55.876;9.830;2022-10-17T07:56:11;9.57;;;1.60;;
31442;SDS011;18065;55.876;9.830;2022-10-17T07:58:40;7.85;;;1.40;;
31442;SDS011;18065;55.876;9.830;2022-10-17T08:01:09;13.18;;;1.88;;
31442;SDS011;18065;55.876;9.830;2022-10-17T08:03:39;10.75;;;1.70;;
31442;SDS011;18065;55.876;9.830;2022-10-17T08:06:08;7.70;;;1.67;;
31442;SDS011;18065;55.876;9.830;2022-10-17T08:08:36;8.95;;;1.80;;
31442;SDS011;18065;55.876;9.830;2022-10-17T08:11:06;6.43;;;1.92;;
31442;SDS011;18065;55.876;9.830;2022-10-17T08:13:40;11.20;;;2.20;;
31442;SDS011;18065;55.876;9.830;2022-10-17T08:16:10;8.27;;;1.80;;
31442;SDS011;18065;55.876;9.830;2022-10-17T08:18:40;6.70;;;1.80;;
31442;SDS011;18065;55.876;9.830;2022-10-17T08:21:10;8.40;;;1.95;;
31442;SDS011;18065;55.876;9.830;2022-10-17T08:23:40;9.63;;;2.05;;
31442;SDS011;18065;55.876;9.830;2022-10-17T08:26:09;13.65;;;2.20;;
31442;SDS011;18065;55.876;9.830;2022-10-17T08:28:43;12.95;;;2.00;;
31442;SDS011;18065;55.876;9.830;2022-10-17T08:31:13;11.02;;;1.85;;
31442;SDS011;18065;55.876;9.830;2022-10-17T08:33:43;6.85;;;1.60;;
31442;SDS011;18065;55.876;9.830;2022-10-17T08:36:12;7.00;;;1.77;;
31442;SDS011;18065;55.876;9.830;2022-10-17T08:38:43;14.40;;;2.13;;
31442;SDS011;18065;55.876;9.830;2022-10-17T08:41:13;11.65;;;2.30;;
31442;SDS011;18065;55.876;9.830;2022-10-17T08:43:54;14.52;;;1.80;;
31442;SDS011;18065;55.876;9.830;2022-10-17T08:46:30;9.77;;;1.80;;
31442;SDS011;18065;55.876;9.830;2022-10-17T08:49:03;11.48;;;1.75;;
31442;SDS011;18065;55.876;9.830;2022-10-17T08:51:39;11.05;;;1.77;;
31442;SDS011;18065;55.876;9.830;2022-10-17T08:54:19;11.02;;;2.10;;
31442;SDS011;18065;55.876;9.830;2022-10-17T08:56:52;6.28;;;1.42;;
31442;SDS011;18065;55.876;9.830;2022-10-17T08:59:25;8.32;;;1.58;;
31442;SDS011;18065;55.876;9.830;2022-10-17T09:01:56;6.03;;;1.67;;
31442;SDS011;18065;55.876;9.830;2022-10-17T09:04:34;6.18;;;1.77;;
31442;SDS011;18065;55.876;9.830;2022-10-17T09:07:17;4.30;;;1.20;;
31442;SDS011;18065;55.876;9.830;2022-10-17T09:09:54;8.77;;;1.42;;
31442;SDS011;18065;55.876;9.830;2022-10-17T09:12:31;4.95;;;1.33;;
31442;SDS011;18065;55.876;9.830;2022-10-17T09:15:15;7.15;;;1.30;;
31442;SDS011;18065;55.876;9.830;2022-10-17T09:17:58;6.65;;;1.50;;
31442;SDS011;18065;55.876;9.830;2022-10-17T09:20:30;6.10;;;1.63;;
31442;SDS011;18065;55.876;9.830;2022-10-17T09:23:02;8.57;;;1.38;;
31442;SDS011;18065;55.876;9.830;2022-10-17T09:25:39;3.53;;;1.02;;
31442;SDS011;18065;55.876;9.830;2022-10-17T09:28:12;4.30;;;1.20;;
31442;SDS011;18065;55.876;9.830;2022-10-17T09:30:48;7.18;;;1.63;;
31442;SDS011;18065;55.876;9.830;2022-10-17T09:33:24;5.32;;;1.40;;
31442;SDS011;18065;55.876;9.830;2022-10-17T09:35:55;5.43;;;1.25;;
31442;SDS011;18065;55.876;9.830;2022-10-17T09:38:27;5.35;;;1.27;;
31442;SDS011;18065;55.876;9.830;2022-10-17T09:41:01;4.75;;;1.45;;
31442;SDS011;18065;55.876;9.830;2022-10-17T09:43:30;3.45;;;1.02;;
31442;SDS011;18065;55.876;9.830;2022-10-17T09:46:04;6.80;;;1.17;;
31442;SDS011;18065;55.876;9.830;2022-10-17T09:48:36;6.28;;;1.50;;
31442;SDS011;18065;55.876;9.830;2022-10-17T09:51:09;8.75;;;2.10;;
31442;SDS011;18065;55.876;9.830;2022-10-17T09:53:40;5.80;;;1.40;;
31442;SDS011;18065;55.876;9.830;2022-10-17T09:56:12;7.65;;;1.48;;
31442;SDS011;18065;55.876;9.830;2022-10-17T09:58:43;7.70;;;1.60;;
31442;SDS011;18065;55.876;9.830;2022-10-17T10:01:17;5.25;;;1.23;;
31442;SDS011;18065;55.876;9.830;2022-10-17T10:03:48;5.70;;;1.27;;
31442;SDS011;18065;55.876;9.830;2022-10-17T10:06:35;6.43;;;1.60;;
31442;SDS011;18065;55.876;9.830;2022-10-17T10:09:04;4.15;;;1.17;;
31442;SDS011;18065;55.876;9.830;2022-10-17T10:11:45;6.38;;;1.70;;
